sensor_id;sensor_type;location;lat;lon;timestamp;P1;durP1;ratioP1;P2;durP2;ratioP2
55497;SDS011;41357;52.806;18.268;2023-06-10T00:02:16;7.95;;;4.63;;
55497;SDS011;41357;52.806;18.268;2023-06-10T00:04:42;7.50;;;4.88;;
55497;SDS011;41357;52.806;18.268;2023-06-10T00:07:09;8.65;;;4.63;;
55497;SDS011;41357;52.806;18.268;2023-06-10T00:09:35;8.85;;;5.30;;
55497;SDS011;41357;52.806;18.268;2023-06-10T00:12:05;7.18;;;4.45;;
55497;SDS011;41357;52.806;18.268;2023-06-10T00:14:32;7.85;;;4.30;;
55497;SDS011;41357;52.806;18.268;2023-06-10T00:16:58;8.50;;;5.00;;
55497;SDS011;41357;52.806;18.268;2023-06-10T00:19:24;7.32;;;3.92;;
55497;SDS011;41357;52.806;18.268;2023-06-10T00:21:55;7.80;;;4.47;;
55497;SDS011;41357;52.806;18.268;2023-06-10T00:24:21;6.65;;;4.22;;
55497;SDS011;41357;52.806;18.268;2023-06-10T00:26:47;7.05;;;4.45;;
55497;SDS011;41357;52.806;18.268;2023-06-10T00:29:13;9.63;;;4.70;;
55497;SDS011;41357;52.806;18.268;2023-06-10T00:31:40;10.07;;;4.75;;
55497;SDS011;41357;52.806;18.268;2023-06-10T00:34:06;6.95;;;4.88;;
55497;SDS011;41357;52.806;18.268;2023-06-10T00:36:32;10.05;;;4.78;;
55497;SDS011;41357;52.806;18.268;2023-06-10T00:38:58;9.05;;;4.93;;
55497;SDS011;41357;52.806;18.268;2023-06-10T00:41:25;6.10;;;4.30;;
55497;SDS011;41357;52.806;18.268;2023-06-10T00:43:57;8.27;;;4.85;;
55497;SDS011;41357;52.806;18.268;2023-06-10T00:46:23;8.80;;;4.30;;
55497;SDS011;41357;52.806;18.268;2023-06-10T00:48:51;9.98;;;4.28;;
55497;SDS011;41357;52.806;18.268;2023-06-10T00:51:18;9.23;;;4.60;;
55497;SDS011;41357;52.806;18.268;2023-06-10T00:53:44;9.85;;;4.30;;
55497;SDS011;41357;52.806;18.268;2023-06-10T00:56:10;5.18;;;4.30;;
55497;SDS011;41357;52.806;18.268;2023-06-10T00:58:37;11.07;;;4.82;;
55497;SDS011;41357;52.806;18.268;2023-06-10T01:01:03;7.93;;;4.80;;
55497;SDS011;41357;52.806;18.268;2023-06-10T01:03:29;8.85;;;4.45;;
55497;SDS011;41357;52.806;18.268;2023-06-10T01:06:02;6.38;;;3.97;;
55497;SDS011;41357;52.806;18.268;2023-06-10T01:08:33;16.25;;;4.85;;
55497;SDS011;41357;52.806;18.268;2023-06-10T01:11:02;6.07;;;3.78;;
55497;SDS011;41357;52.806;18.268;2023-06-10T01:13:30;6.60;;;4.28;;
55497;SDS011;41357;52.806;18.268;2023-06-10T01:15:57;5.28;;;4.43;;
55497;SDS011;41357;52.806;18.268;2023-06-10T01:18:29;8.23;;;4.40;;
55497;SDS011;41357;52.806;18.268;2023-06-10T01:20:56;6.47;;;4.28;;
55497;SDS011;41357;52.806;18.268;2023-06-10T01:23:22;8.70;;;4.65;;
55497;SDS011;41357;52.806;18.268;2023-06-10T01:26:02;7.72;;;4.65;;
55497;SDS011;41357;52.806;18.268;2023-06-10T01:28:31;9.10;;;5.03;;
55497;SDS011;41357;52.806;18.268;2023-06-10T01:31:15;7.27;;;4.27;;
55497;SDS011;41357;52.806;18.268;2023-06-10T01:33:43;9.10;;;4.45;;
55497;SDS011;41357;52.806;18.268;2023-06-10T01:36:10;11.38;;;4.85;;
55497;SDS011;41357;52.806;18.268;2023-06-10T01:38:39;11.38;;;5.35;;
55497;SDS011;41357;52.806;18.268;2023-06-10T01:41:06;7.63;;;4.07;;
55497;SDS011;41357;52.806;18.268;2023-06-10T01:43:33;10.40;;;4.85;;
55497;SDS011;41357;52.806;18.268;2023-06-10T01:45:59;6.25;;;4.38;;
55497;SDS011;41357;52.806;18.268;2023-06-10T01:48:26;8.43;;;5.03;;
55497;SDS011;41357;52.806;18.268;2023-06-10T01:50:52;7.15;;;4.20;;
55497;SDS011;41357;52.806;18.268;2023-06-10T01:53:20;7.90;;;4.45;;
55497;SDS011;41357;52.806;18.268;2023-06-10T01:55:47;7.60;;;4.20;;
55497;SDS011;41357;52.806;18.268;2023-06-10T01:58:13;15.63;;;4.05;;
55497;SDS011;41357;52.806;18.268;2023-06-10T02:00:39;8.63;;;4.32;;
55497;SDS011;41357;52.806;18.268;2023-06-10T02:03:05;6.15;;;4.15;;
55497;SDS011;41357;52.806;18.268;2023-06-10T02:05:31;5.45;;;3.55;;
55497;SDS011;41357;52.806;18.268;2023-06-10T02:07:57;12.85;;;4.68;;
55497;SDS011;41357;52.806;18.268;2023-06-10T02:10:23;8.57;;;4.25;;
55497;SDS011;41357;52.806;18.268;2023-06-10T02:12:50;7.78;;;4.32;;
55497;SDS011;41357;52.806;18.268;2023-06-10T02:15:16;6.93;;;4.20;;
55497;SDS011;41357;52.806;18.268;2023-06-10T02:17:42;9.80;;;4.25;;
55497;SDS011;41357;52.806;18.268;2023-06-10T02:20:09;6.82;;;4.10;;
55497;SDS011;41357;52.806;18.268;2023-06-10T02:22:37;8.63;;;4.13;;
55497;SDS011;41357;52.806;18.268;2023-06-10T02:25:03;7.90;;;4.13;;
55497;SDS011;41357;52.806;18.268;2023-06-10T02:27:29;6.15;;;4.13;;
55497;SDS011;41357;52.806;18.268;2023-06-10T02:29:59;7.97;;;4.38;;
55497;SDS011;41357;52.806;18.268;2023-06-10T02:32:25;7.22;;;4.72;;
55497;SDS011;41357;52.806;18.268;2023-06-10T02:34:51;8.88;;;4.70;;
55497;SDS011;41357;52.806;18.268;2023-06-10T02:37:18;8.18;;;4.40;;
55497;SDS011;41357;52.806;18.268;2023-06-10T02:39:45;5.47;;;4.03;;
55497;SDS011;41357;52.806;18.268;2023-06-10T02:42:11;6.15;;;4.55;;
55497;SDS011;41357;52.806;18.268;2023-06-10T02:44:37;6.28;;;4.53;;
55497;SDS011;41357;52.806;18.268;2023-06-10T02:47:04;9.30;;;5.18;;
55497;SDS011;41357;52.806;18.268;2023-06-10T02:49:31;10.07;;;4.93;;
55497;SDS011;41357;52.806;18.268;2023-06-10T02:51:57;7.35;;;4.43;;
55497;SDS011;41357;52.806;18.268;2023-06-10T02:54:23;9.73;;;4.50;;
55497;SDS011;41357;52.806;18.268;2023-06-10T02:56:50;9.25;;;4.47;;
55497;SDS011;41357;52.806;18.268;2023-06-10T02:59:17;8.40;;;4.43;;
55497;SDS011;41357;52.806;18.268;2023-06-10T03:01:43;12.40;;;5.07;;
55497;SDS011;41357;52.806;18.268;2023-06-10T03:04:09;8.25;;;4.25;;
55497;SDS011;41357;52.806;18.268;2023-06-10T03:06:38;8.13;;;4.28;;
55497;SDS011;41357;52.806;18.268;2023-06-10T03:09:06;9.55;;;5.90;;
55497;SDS011;41357;52.806;18.268;2023-06-10T03:11:35;8.27;;;5.00;;
55497;SDS011;41357;52.806;18.268;2023-06-10T03:14:01;8.07;;;4.72;;
55497;SDS011;41357;52.806;18.268;2023-06-10T03:16:27;15.50;;;5.18;;
55497;SDS011;41357;52.806;18.268;2023-06-10T03:18:55;6.65;;;4.63;;
55497;SDS011;41357;52.806;18.268;2023-06-10T03:21:21;10.40;;;4.95;;
55497;SDS011;41357;52.806;18.268;2023-06-10T03:23:47;8.32;;;4.65;;
55497;SDS011;41357;52.806;18.268;2023-06-10T03:26:13;8.68;;;4.57;;
55497;SDS011;41357;52.806;18.268;2023-06-10T03:28:40;7.85;;;4.53;;
55497;SDS011;41357;52.806;18.268;2023-06-10T03:31:07;8.70;;;4.85;;
55497;SDS011;41357;52.806;18.268;2023-06-10T03:33:33;8.73;;;4.60;;
55497;SDS011;41357;52.806;18.268;2023-06-10T03:35:59;10.60;;;4.85;;
55497;SDS011;41357;52.806;18.268;2023-06-10T03:38:25;11.00;;;4.75;;
55497;SDS011;41357;52.806;18.268;2023-06-10T03:40:51;8.00;;;4.60;;
55497;SDS011;41357;52.806;18.268;2023-06-10T03:43:17;8.02;;;4.32;;
55497;SDS011;41357;52.806;18.268;2023-06-10T03:45:43;9.80;;;4.57;;
55497;SDS011;41357;52.806;18.268;2023-06-10T03:48:10;9.15;;;4.57;;
55497;SDS011;41357;52.806;18.268;2023-06-10T03:50:36;9.05;;;4.68;;
55497;SDS011;41357;52.806;18.268;2023-06-10T03:53:02;10.50;;;4.60;;
55497;SDS011;41357;52.806;18.268;2023-06-10T03:55:28;9.48;;;4.60;;
55497;SDS011;41357;52.806;18.268;2023-06-10T03:57:54;6.55;;;4.03;;
55497;SDS011;41357;52.806;18.268;2023-06-10T04:00:20;11.68;;;4.47;;
55497;SDS011;41357;52.806;18.268;2023-06-10T04:02:47;10.88;;;4.65;;
55497;SDS011;41357;52.806;18.268;2023-06-10T04:05:17;13.73;;;5.20;;
55497;SDS011;41357;52.806;18.268;2023-06-10T04:07:44;12.57;;;5.07;;
55497;SDS011;41357;52.806;18.268;2023-06-10T04:10:10;10.68;;;4.68;;
55497;SDS011;41357;52.806;18.268;2023-06-10T04:12:37;10.15;;;4.40;;
55497;SDS011;41357;52.806;18.268;2023-06-10T04:15:04;9.13;;;4.45;;
55497;SDS011;41357;52.806;18.268;2023-06-10T04:17:30;7.70;;;3.65;;
55497;SDS011;41357;52.806;18.268;2023-06-10T04:19:56;9.52;;;4.80;;
55497;SDS011;41357;52.806;18.268;2023-06-10T04:22:23;9.23;;;4.68;;
55497;SDS011;41357;52.806;18.268;2023-06-10T04:24:49;11.25;;;4.90;;
55497;SDS011;41357;52.806;18.268;2023-06-10T04:27:15;7.95;;;4.10;;
55497;SDS011;41357;52.806;18.268;2023-06-10T04:29:41;8.55;;;5.03;;
55497;SDS011;41357;52.806;18.268;2023-06-10T04:32:07;10.75;;;4.35;;
55497;SDS011;41357;52.806;18.268;2023-06-10T04:34:34;11.20;;;4.90;;
55497;SDS011;41357;52.806;18.268;2023-06-10T04:37:00;10.45;;;4.05;;
55497;SDS011;41357;52.806;18.268;2023-06-10T04:39:26;9.40;;;4.25;;
55497;SDS011;41357;52.806;18.268;2023-06-10T04:41:52;6.32;;;3.53;;
55497;SDS011;41357;52.806;18.268;2023-06-10T04:44:18;6.82;;;3.85;;
55497;SDS011;41357;52.806;18.268;2023-06-10T04:46:45;6.10;;;4.00;;
55497;SDS011;41357;52.806;18.268;2023-06-10T04:49:11;10.18;;;4.20;;
55497;SDS011;41357;52.806;18.268;2023-06-10T04:51:39;8.23;;;4.47;;
55497;SDS011;41357;52.806;18.268;2023-06-10T04:54:05;7.13;;;4.07;;
55497;SDS011;41357;52.806;18.268;2023-06-10T04:56:31;9.07;;;4.40;;
55497;SDS011;41357;52.806;18.268;2023-06-10T04:58:58;7.60;;;3.55;;
55497;SDS011;41357;52.806;18.268;2023-06-10T05:01:24;5.95;;;3.75;;
55497;SDS011;41357;52.806;18.268;2023-06-10T05:03:50;12.05;;;4.05;;
55497;SDS011;41357;52.806;18.268;2023-06-10T05:06:16;7.43;;;4.50;;
55497;SDS011;41357;52.806;18.268;2023-06-10T05:08:42;7.95;;;4.07;;
55497;SDS011;41357;52.806;18.268;2023-06-10T05:11:09;7.55;;;3.53;;
55497;SDS011;41357;52.806;18.268;2023-06-10T05:13:35;8.10;;;4.15;;
55497;SDS011;41357;52.806;18.268;2023-06-10T05:16:01;11.15;;;4.00;;
55497;SDS011;41357;52.806;18.268;2023-06-10T05:18:27;11.18;;;4.25;;
55497;SDS011;41357;52.806;18.268;2023-06-10T05:20:53;10.55;;;4.28;;
55497;SDS011;41357;52.806;18.268;2023-06-10T05:23:20;5.28;;;3.67;;
55497;SDS011;41357;52.806;18.268;2023-06-10T05:25:46;8.65;;;3.63;;
55497;SDS011;41357;52.806;18.268;2023-06-10T05:28:13;7.63;;;3.53;;
55497;SDS011;41357;52.806;18.268;2023-06-10T05:30:39;7.45;;;4.30;;
55497;SDS011;41357;52.806;18.268;2023-06-10T05:33:05;12.70;;;4.05;;
55497;SDS011;41357;52.806;18.268;2023-06-10T05:35:31;8.88;;;5.40;;
55497;SDS011;41357;52.806;18.268;2023-06-10T05:37:57;9.23;;;4.45;;
55497;SDS011;41357;52.806;18.268;2023-06-10T05:40:23;8.77;;;4.88;;
55497;SDS011;41357;52.806;18.268;2023-06-10T05:42:49;8.48;;;3.95;;
55497;SDS011;41357;52.806;18.268;2023-06-10T05:45:15;9.00;;;3.92;;
55497;SDS011;41357;52.806;18.268;2023-06-10T05:47:41;9.90;;;3.97;;
55497;SDS011;41357;52.806;18.268;2023-06-10T05:50:08;19.42;;;4.53;;
55497;SDS011;41357;52.806;18.268;2023-06-10T05:52:37;10.23;;;3.65;;
55497;SDS011;41357;52.806;18.268;2023-06-10T05:57:31;17.02;;;3.95;;
55497;SDS011;41357;52.806;18.268;2023-06-10T05:59:57;8.32;;;3.67;;
55497;SDS011;41357;52.806;18.268;2023-06-10T06:02:24;6.88;;;3.90;;
55497;SDS011;41357;52.806;18.268;2023-06-10T06:04:50;8.40;;;3.90;;
55497;SDS011;41357;52.806;18.268;2023-06-10T06:07:16;10.63;;;3.70;;
55497;SDS011;41357;52.806;18.268;2023-06-10T06:09:45;8.75;;;3.85;;
55497;SDS011;41357;52.806;18.268;2023-06-10T06:12:11;11.98;;;3.85;;
55497;SDS011;41357;52.806;18.268;2023-06-10T06:14:38;9.30;;;3.63;;
55497;SDS011;41357;52.806;18.268;2023-06-10T06:17:05;13.32;;;4.07;;
55497;SDS011;41357;52.806;18.268;2023-06-10T06:19:31;11.95;;;4.03;;
55497;SDS011;41357;52.806;18.268;2023-06-10T06:21:58;6.93;;;3.67;;
55497;SDS011;41357;52.806;18.268;2023-06-10T06:24:24;10.15;;;3.67;;
55497;SDS011;41357;52.806;18.268;2023-06-10T06:26:50;5.47;;;3.70;;
55497;SDS011;41357;52.806;18.268;2023-06-10T06:29:16;9.20;;;3.10;;
55497;SDS011;41357;52.806;18.268;2023-06-10T06:31:42;10.48;;;3.78;;
55497;SDS011;41357;52.806;18.268;2023-06-10T06:34:08;10.32;;;4.13;;
55497;SDS011;41357;52.806;18.268;2023-06-10T06:36:34;9.20;;;3.60;;
55497;SDS011;41357;52.806;18.268;2023-06-10T06:39:00;8.90;;;3.97;;
55497;SDS011;41357;52.806;18.268;2023-06-10T06:41:27;5.80;;;3.20;;
55497;SDS011;41357;52.806;18.268;2023-06-10T06:43:53;11.57;;;3.83;;
55497;SDS011;41357;52.806;18.268;2023-06-10T06:46:20;15.43;;;4.40;;
55497;SDS011;41357;52.806;18.268;2023-06-10T06:48:47;7.82;;;4.28;;
55497;SDS011;41357;52.806;18.268;2023-06-10T06:51:13;8.20;;;4.20;;
55497;SDS011;41357;52.806;18.268;2023-06-10T06:53:39;4.75;;;3.38;;
55497;SDS011;41357;52.806;18.268;2023-06-10T06:56:11;7.38;;;3.70;;
55497;SDS011;41357;52.806;18.268;2023-06-10T06:58:38;5.95;;;3.40;;
55497;SDS011;41357;52.806;18.268;2023-06-10T07:01:04;11.40;;;3.58;;
55497;SDS011;41357;52.806;18.268;2023-06-10T07:03:30;6.60;;;3.58;;
55497;SDS011;41357;52.806;18.268;2023-06-10T07:05:57;15.15;;;4.85;;
55497;SDS011;41357;52.806;18.268;2023-06-10T07:08:23;9.70;;;3.72;;
55497;SDS011;41357;52.806;18.268;2023-06-10T07:10:49;8.05;;;3.30;;
55497;SDS011;41357;52.806;18.268;2023-06-10T07:13:15;5.20;;;3.72;;
55497;SDS011;41357;52.806;18.268;2023-06-10T07:15:41;9.20;;;3.75;;
55497;SDS011;41357;52.806;18.268;2023-06-10T07:18:08;9.40;;;3.90;;
55497;SDS011;41357;52.806;18.268;2023-06-10T07:20:34;12.15;;;3.97;;
55497;SDS011;41357;52.806;18.268;2023-06-10T07:23:00;8.55;;;3.75;;
55497;SDS011;41357;52.806;18.268;2023-06-10T07:25:26;7.78;;;3.50;;
55497;SDS011;41357;52.806;18.268;2023-06-10T07:27:52;6.55;;;3.47;;
55497;SDS011;41357;52.806;18.268;2023-06-10T07:30:18;5.28;;;3.60;;
55497;SDS011;41357;52.806;18.268;2023-06-10T07:32:44;5.95;;;3.17;;
55497;SDS011;41357;52.806;18.268;2023-06-10T07:35:10;7.22;;;3.10;;
55497;SDS011;41357;52.806;18.268;2023-06-10T07:37:37;10.93;;;4.40;;
55497;SDS011;41357;52.806;18.268;2023-06-10T07:40:03;7.72;;;3.85;;
55497;SDS011;41357;52.806;18.268;2023-06-10T07:42:30;7.40;;;3.50;;
55497;SDS011;41357;52.806;18.268;2023-06-10T07:44:56;12.38;;;3.47;;
55497;SDS011;41357;52.806;18.268;2023-06-10T07:47:22;11.90;;;4.20;;
55497;SDS011;41357;52.806;18.268;2023-06-10T07:49:49;5.07;;;3.22;;
55497;SDS011;41357;52.806;18.268;2023-06-10T07:52:15;8.23;;;3.97;;
55497;SDS011;41357;52.806;18.268;2023-06-10T07:54:41;12.23;;;3.50;;
55497;SDS011;41357;52.806;18.268;2023-06-10T07:57:07;8.48;;;3.80;;
55497;SDS011;41357;52.806;18.268;2023-06-10T07:59:33;5.25;;;3.33;;
55497;SDS011;41357;52.806;18.268;2023-06-10T08:01:59;6.28;;;3.50;;
55497;SDS011;41357;52.806;18.268;2023-06-10T08:04:25;9.75;;;3.17;;
55497;SDS011;41357;52.806;18.268;2023-06-10T08:06:51;7.20;;;3.20;;
55497;SDS011;41357;52.806;18.268;2023-06-10T08:09:18;8.45;;;3.50;;
55497;SDS011;41357;52.806;18.268;2023-06-10T08:11:46;8.02;;;3.13;;
55497;SDS011;41357;52.806;18.268;2023-06-10T08:14:12;4.97;;;3.45;;
55497;SDS011;41357;52.806;18.268;2023-06-10T08:16:39;7.00;;;3.28;;
55497;SDS011;41357;52.806;18.268;2023-06-10T08:19:05;8.10;;;3.70;;
55497;SDS011;41357;52.806;18.268;2023-06-10T08:21:31;7.07;;;3.25;;
55497;SDS011;41357;52.806;18.268;2023-06-10T08:23:58;7.82;;;3.35;;
55497;SDS011;41357;52.806;18.268;2023-06-10T08:26:24;8.75;;;4.30;;
55497;SDS011;41357;52.806;18.268;2023-06-10T08:28:51;5.88;;;3.20;;
55497;SDS011;41357;52.806;18.268;2023-06-10T08:31:17;7.13;;;3.42;;
55497;SDS011;41357;52.806;18.268;2023-06-10T08:33:43;11.93;;;3.55;;
55497;SDS011;41357;52.806;18.268;2023-06-10T08:36:09;5.30;;;3.50;;
55497;SDS011;41357;52.806;18.268;2023-06-10T08:38:35;6.35;;;3.20;;
55497;SDS011;41357;52.806;18.268;2023-06-10T08:41:01;6.25;;;3.25;;
55497;SDS011;41357;52.806;18.268;2023-06-10T08:46:14;6.53;;;3.58;;
55497;SDS011;41357;52.806;18.268;2023-06-10T08:48:44;10.57;;;3.15;;
55497;SDS011;41357;52.806;18.268;2023-06-10T08:51:11;13.23;;;3.33;;
55497;SDS011;41357;52.806;18.268;2023-06-10T08:53:38;6.78;;;3.10;;
55497;SDS011;41357;52.806;18.268;2023-06-10T08:56:07;9.05;;;3.50;;
55497;SDS011;41357;52.806;18.268;2023-06-10T08:58:33;4.75;;;2.80;;
55497;SDS011;41357;52.806;18.268;2023-06-10T09:01:06;6.38;;;3.15;;
55497;SDS011;41357;52.806;18.268;2023-06-10T09:03:33;5.80;;;2.72;;
55497;SDS011;41357;52.806;18.268;2023-06-10T09:06:00;7.05;;;3.47;;
55497;SDS011;41357;52.806;18.268;2023-06-10T09:08:26;8.35;;;3.00;;
55497;SDS011;41357;52.806;18.268;2023-06-10T09:10:52;9.40;;;3.47;;
55497;SDS011;41357;52.806;18.268;2023-06-10T09:13:18;10.13;;;3.67;;
55497;SDS011;41357;52.806;18.268;2023-06-10T09:15:45;5.22;;;3.00;;
55497;SDS011;41357;52.806;18.268;2023-06-10T09:18:11;16.85;;;3.70;;
55497;SDS011;41357;52.806;18.268;2023-06-10T09:20:38;8.32;;;3.90;;
55497;SDS011;41357;52.806;18.268;2023-06-10T09:23:05;23.17;;;4.25;;
55497;SDS011;41357;52.806;18.268;2023-06-10T09:25:38;9.57;;;3.20;;
55497;SDS011;41357;52.806;18.268;2023-06-10T09:28:04;7.47;;;3.78;;
55497;SDS011;41357;52.806;18.268;2023-06-10T09:30:31;6.82;;;3.40;;
55497;SDS011;41357;52.806;18.268;2023-06-10T09:32:58;9.02;;;3.53;;
55497;SDS011;41357;52.806;18.268;2023-06-10T09:35:25;7.97;;;2.78;;
55497;SDS011;41357;52.806;18.268;2023-06-10T09:37:55;5.40;;;3.28;;
55497;SDS011;41357;52.806;18.268;2023-06-10T09:40:21;5.75;;;2.70;;
55497;SDS011;41357;52.806;18.268;2023-06-10T09:42:52;5.70;;;3.25;;
55497;SDS011;41357;52.806;18.268;2023-06-10T09:45:20;6.40;;;2.47;;
55497;SDS011;41357;52.806;18.268;2023-06-10T09:47:46;11.80;;;3.28;;
55497;SDS011;41357;52.806;18.268;2023-06-10T09:50:13;4.57;;;2.83;;
55497;SDS011;41357;52.806;18.268;2023-06-10T09:52:39;9.27;;;3.05;;
55497;SDS011;41357;52.806;18.268;2023-06-10T09:55:07;13.70;;;3.60;;
55497;SDS011;41357;52.806;18.268;2023-06-10T09:57:35;4.57;;;2.77;;
55497;SDS011;41357;52.806;18.268;2023-06-10T10:00:05;10.00;;;3.13;;
55497;SDS011;41357;52.806;18.268;2023-06-10T10:02:31;9.50;;;3.40;;
55497;SDS011;41357;52.806;18.268;2023-06-10T10:05:03;7.78;;;2.80;;
55497;SDS011;41357;52.806;18.268;2023-06-10T10:07:34;7.40;;;2.85;;
55497;SDS011;41357;52.806;18.268;2023-06-10T10:10:00;10.15;;;3.53;;
55497;SDS011;41357;52.806;18.268;2023-06-10T10:12:26;7.15;;;3.00;;
55497;SDS011;41357;52.806;18.268;2023-06-10T10:14:53;8.35;;;3.10;;
55497;SDS011;41357;52.806;18.268;2023-06-10T10:17:20;7.40;;;2.83;;
55497;SDS011;41357;52.806;18.268;2023-06-10T10:19:50;3.13;;;2.35;;
55497;SDS011;41357;52.806;18.268;2023-06-10T10:22:29;4.78;;;2.78;;
55497;SDS011;41357;52.806;18.268;2023-06-10T10:24:57;10.63;;;3.20;;
55497;SDS011;41357;52.806;18.268;2023-06-10T10:27:30;11.27;;;3.20;;
55497;SDS011;41357;52.806;18.268;2023-06-10T10:29:59;5.13;;;2.78;;
55497;SDS011;41357;52.806;18.268;2023-06-10T10:32:32;5.28;;;2.72;;
55497;SDS011;41357;52.806;18.268;2023-06-10T10:37:33;7.20;;;2.65;;
55497;SDS011;41357;52.806;18.268;2023-06-10T10:39:59;11.95;;;2.67;;
55497;SDS011;41357;52.806;18.268;2023-06-10T10:42:26;8.27;;;2.42;;
55497;SDS011;41357;52.806;18.268;2023-06-10T10:44:53;5.63;;;2.70;;
55497;SDS011;41357;52.806;18.268;2023-06-10T10:47:22;5.35;;;2.92;;
55497;SDS011;41357;52.806;18.268;2023-06-10T10:49:51;6.85;;;3.03;;
55497;SDS011;41357;52.806;18.268;2023-06-10T10:52:24;7.80;;;3.03;;
55497;SDS011;41357;52.806;18.268;2023-06-10T10:54:50;7.40;;;2.95;;
55497;SDS011;41357;52.806;18.268;2023-06-10T10:57:19;9.25;;;2.95;;
55497;SDS011;41357;52.806;18.268;2023-06-10T11:05:00;4.68;;;2.88;;
55497;SDS011;41357;52.806;18.268;2023-06-10T11:07:26;7.15;;;2.70;;
55497;SDS011;41357;52.806;18.268;2023-06-10T11:09:58;6.03;;;2.83;;
55497;SDS011;41357;52.806;18.268;2023-06-10T11:12:25;6.70;;;2.75;;
55497;SDS011;41357;52.806;18.268;2023-06-10T11:14:55;9.93;;;2.30;;
55497;SDS011;41357;52.806;18.268;2023-06-10T11:17:21;5.40;;;2.72;;
55497;SDS011;41357;52.806;18.268;2023-06-10T11:19:48;12.77;;;2.47;;
55497;SDS011;41357;52.806;18.268;2023-06-10T11:22:17;12.25;;;2.67;;
55497;SDS011;41357;52.806;18.268;2023-06-10T11:24:49;3.53;;;2.88;;
55497;SDS011;41357;52.806;18.268;2023-06-10T11:27:16;9.07;;;2.90;;
55497;SDS011;41357;52.806;18.268;2023-06-10T11:32:31;6.75;;;2.55;;
55497;SDS011;41357;52.806;18.268;2023-06-10T11:34:57;15.43;;;3.15;;
55497;SDS011;41357;52.806;18.268;2023-06-10T11:37:23;13.10;;;2.60;;
55497;SDS011;41357;52.806;18.268;2023-06-10T11:39:53;6.93;;;2.33;;
55497;SDS011;41357;52.806;18.268;2023-06-10T11:42:19;17.23;;;3.38;;
55497;SDS011;41357;52.806;18.268;2023-06-10T11:44:49;6.47;;;2.42;;
55497;SDS011;41357;52.806;18.268;2023-06-10T11:49:42;3.75;;;2.30;;
55497;SDS011;41357;52.806;18.268;2023-06-10T11:52:08;5.57;;;2.50;;
55497;SDS011;41357;52.806;18.268;2023-06-10T11:54:34;15.27;;;2.60;;
55497;SDS011;41357;52.806;18.268;2023-06-10T11:57:00;43.13;;;4.10;;
55497;SDS011;41357;52.806;18.268;2023-06-10T11:59:28;11.40;;;3.28;;
55497;SDS011;41357;52.806;18.268;2023-06-10T12:01:54;11.20;;;3.10;;
55497;SDS011;41357;52.806;18.268;2023-06-10T12:04:20;12.95;;;2.90;;
55497;SDS011;41357;52.806;18.268;2023-06-10T12:06:47;18.77;;;2.47;;
55497;SDS011;41357;52.806;18.268;2023-06-10T12:11:43;7.53;;;2.35;;
55497;SDS011;41357;52.806;18.268;2023-06-10T12:14:09;6.55;;;2.60;;
55497;SDS011;41357;52.806;18.268;2023-06-10T12:16:35;4.57;;;1.98;;
55497;SDS011;41357;52.806;18.268;2023-06-10T12:19:02;4.20;;;2.00;;
55497;SDS011;41357;52.806;18.268;2023-06-10T12:21:29;5.03;;;2.45;;
55497;SDS011;41357;52.806;18.268;2023-06-10T12:24:03;14.13;;;3.17;;
55497;SDS011;41357;52.806;18.268;2023-06-10T12:26:40;9.32;;;2.75;;
55497;SDS011;41357;52.806;18.268;2023-06-10T12:31:54;8.38;;;2.35;;
55497;SDS011;41357;52.806;18.268;2023-06-10T12:34:27;10.40;;;2.60;;
55497;SDS011;41357;52.806;18.268;2023-06-10T12:36:54;6.35;;;2.33;;
55497;SDS011;41357;52.806;18.268;2023-06-10T12:39:20;4.60;;;2.17;;
55497;SDS011;41357;52.806;18.268;2023-06-10T12:41:49;6.38;;;2.03;;
55497;SDS011;41357;52.806;18.268;2023-06-10T12:44:16;6.45;;;2.33;;
55497;SDS011;41357;52.806;18.268;2023-06-10T12:46:44;4.40;;;2.53;;
55497;SDS011;41357;52.806;18.268;2023-06-10T12:49:22;10.55;;;4.35;;
55497;SDS011;41357;52.806;18.268;2023-06-10T12:51:48;8.70;;;3.22;;
55497;SDS011;41357;52.806;18.268;2023-06-10T12:54:14;3.00;;;2.00;;
55497;SDS011;41357;52.806;18.268;2023-06-10T12:56:40;3.65;;;2.00;;
55497;SDS011;41357;52.806;18.268;2023-06-10T12:59:06;3.90;;;1.92;;
55497;SDS011;41357;52.806;18.268;2023-06-10T13:01:33;2.80;;;1.90;;
55497;SDS011;41357;52.806;18.268;2023-06-10T13:03:59;5.30;;;2.28;;
55497;SDS011;41357;52.806;18.268;2023-06-10T13:06:25;5.68;;;1.70;;
55497;SDS011;41357;52.806;18.268;2023-06-10T13:08:51;5.57;;;1.95;;
55497;SDS011;41357;52.806;18.268;2023-06-10T13:11:17;3.70;;;2.03;;
55497;SDS011;41357;52.806;18.268;2023-06-10T13:13:43;4.72;;;2.35;;
55497;SDS011;41357;52.806;18.268;2023-06-10T13:16:11;9.50;;;2.03;;
55497;SDS011;41357;52.806;18.268;2023-06-10T13:18:37;3.58;;;1.80;;
55497;SDS011;41357;52.806;18.268;2023-06-10T13:21:03;4.93;;;2.13;;
55497;SDS011;41357;52.806;18.268;2023-06-10T13:23:29;5.88;;;1.90;;
55497;SDS011;41357;52.806;18.268;2023-06-10T13:25:56;3.00;;;1.85;;
55497;SDS011;41357;52.806;18.268;2023-06-10T13:28:23;3.97;;;1.90;;
55497;SDS011;41357;52.806;18.268;2023-06-10T13:30:49;3.05;;;1.90;;
55497;SDS011;41357;52.806;18.268;2023-06-10T13:33:15;3.75;;;1.88;;
55497;SDS011;41357;52.806;18.268;2023-06-10T13:35:41;3.08;;;1.98;;
55497;SDS011;41357;52.806;18.268;2023-06-10T13:38:08;3.50;;;2.13;;
55497;SDS011;41357;52.806;18.268;2023-06-10T13:40:34;6.68;;;1.92;;
55497;SDS011;41357;52.806;18.268;2023-06-10T13:43:00;5.22;;;2.15;;
55497;SDS011;41357;52.806;18.268;2023-06-10T13:45:27;6.93;;;2.25;;
55497;SDS011;41357;52.806;18.268;2023-06-10T13:47:53;7.45;;;2.55;;
55497;SDS011;41357;52.806;18.268;2023-06-10T13:50:19;13.20;;;2.20;;
55497;SDS011;41357;52.806;18.268;2023-06-10T13:52:45;7.35;;;2.17;;
55497;SDS011;41357;52.806;18.268;2023-06-10T13:55:11;6.80;;;2.15;;
55497;SDS011;41357;52.806;18.268;2023-06-10T13:57:38;2.25;;;1.67;;
55497;SDS011;41357;52.806;18.268;2023-06-10T14:00:04;4.90;;;2.72;;
55497;SDS011;41357;52.806;18.268;2023-06-10T14:02:30;5.95;;;2.00;;
55497;SDS011;41357;52.806;18.268;2023-06-10T14:04:56;4.07;;;2.20;;
55497;SDS011;41357;52.806;18.268;2023-06-10T14:07:23;6.57;;;2.20;;
55497;SDS011;41357;52.806;18.268;2023-06-10T14:09:51;3.17;;;1.75;;
55497;SDS011;41357;52.806;18.268;2023-06-10T14:12:17;4.70;;;1.88;;
55497;SDS011;41357;52.806;18.268;2023-06-10T14:14:43;14.15;;;2.50;;
55497;SDS011;41357;52.806;18.268;2023-06-10T14:17:09;3.63;;;2.17;;
55497;SDS011;41357;52.806;18.268;2023-06-10T14:19:35;5.93;;;2.03;;
55497;SDS011;41357;52.806;18.268;2023-06-10T14:22:01;4.72;;;2.08;;
55497;SDS011;41357;52.806;18.268;2023-06-10T14:24:28;3.35;;;1.67;;
55497;SDS011;41357;52.806;18.268;2023-06-10T14:26:54;3.63;;;2.00;;
55497;SDS011;41357;52.806;18.268;2023-06-10T14:29:20;3.75;;;2.78;;
55497;SDS011;41357;52.806;18.268;2023-06-10T14:31:47;4.43;;;2.42;;
55497;SDS011;41357;52.806;18.268;2023-06-10T14:34:13;4.78;;;2.03;;
55497;SDS011;41357;52.806;18.268;2023-06-10T14:36:39;4.70;;;1.92;;
55497;SDS011;41357;52.806;18.268;2023-06-10T14:39:05;4.68;;;2.17;;
55497;SDS011;41357;52.806;18.268;2023-06-10T14:41:31;3.30;;;1.90;;
55497;SDS011;41357;52.806;18.268;2023-06-10T14:43:57;8.23;;;2.45;;
55497;SDS011;41357;52.806;18.268;2023-06-10T14:46:23;8.32;;;2.42;;
55497;SDS011;41357;52.806;18.268;2023-06-10T14:48:49;3.65;;;2.10;;
55497;SDS011;41357;52.806;18.268;2023-06-10T14:51:16;4.28;;;2.10;;
55497;SDS011;41357;52.806;18.268;2023-06-10T14:53:42;3.10;;;1.98;;